OSOK1: Oswego hwy 160

Data processed at Sun Apr 30 2017 22:49


All information presented herein is the property of the government of the United States of America and may be revised or deleted at any time without prior notice.
Dissemination of this information without the expressed written consent of the Public Affairs Office, Tulsa District U.S. Army Corps of Engineers is strictly prohibited.
These data are gathered electronically and, as presented, have not undergone any form of quality control. These data are not guaranteed to be valid or correct.
Go to home page.
Go to station list.
Go to station map.

Upstream stations:

Downstream station:
Previous Day
Next Day
Current Day
    
SHEF ID:       OSOK1     Oswego hwy 160
STATION TYPE:  

               PRECIP     STAGE  RIV-FLOW   VOLTAGE  BAT-LOAD
                   in        ft       cfs      volt      volt
              Ccp-Rev   Ccp-Rev   Ccp-Rev   Ccp-Rev   Ccp-Rev
(US/Central)
04/30 00:00      0.06     26.19     22254     12.41     12.09
04/30 01:00      0.09     27.05     23753     12.41     12.25
04/30 02:00      0.04     27.74     25076     12.41     11.93
04/30 03:00      0.00     28.29     26131     12.25     12.17
04/30 04:00      0.01     28.71     26936     12.33     12.17
04/30 05:00      0.01     29.04     27569     12.41     12.17
04/30 06:00      0.14     29.37     28066     12.41     12.25
04/30 07:00      0.00     29.59     28380     12.41     12.17
04/30 08:00      0.01     29.79     28666     12.41     12.25
04/30 09:00      0.00     29.98     28938     12.41     12.25
04/30 10:00      0.00     30.13     29153     12.49     12.25
04/30 11:00      0.00     30.32     29425     12.65     12.41
04/30 12:00      0.00     30.47     29639     13.05     12.97
04/30 13:00      0.01     30.60     29825     13.37     13.53
04/30 14:00      0.00     30.73     30011     13.44     13.29
04/30 15:00      0.00     30.89     30240     13.92     13.29
04/30 16:00      0.00     31.09     30326     13.44     13.53
04/30 17:00      0.00     31.29     30326     13.37     13.29
04/30 18:00      0.00     31.40     30326     13.21     13.05
04/30 19:00      0.00     31.63     30326     12.89     12.81
04/30 20:00      0.01     31.80     30326     12.73     12.57
04/30 21:00      0.01     31.96     30326     12.65     12.57
04/30 22:00      0.00     32.10     30326     12.65     12.49
04/30 23:00      ----      ----      ----      ----      ----